Terminal Aerodrome Forecast
Issued by NWS

Home | Current Version | Previous Version | Text Only | Print | Product List | Glossary Off
Versions: 1 2 3 4 5 6 7 8 9 10 11 12 13

000
FTUS43 KIWX 261121
TAFSBN
TAF
KSBN 261121Z 2612/2712 00000KT P6SM SCT150
      TEMPO 2612/2613 4SM BR
     FM261400 07006KT P6SM FEW050 BKN200
     FM270000 11003KT P6SM SCT250=

USA.gov is the U.S. government's official web portal to all federal, state and local government web resources and services.